Terminal Aerodrome Forecast
Issued by NWS

Home | Current Version | Previous Version | Text Only | Print | Product List | Glossary On
Versions: 1 2 3 4 5 6 7 8 9 10 11 12 13 14 15 16 17 18 19 20 21 22 23 24 25 26 27 28 29 30 31 32 33 34 35 36 37 38 39 40 41 42 43 44 45 46 47 48 49 50
509
FTUS43 KGRB 141734
TAFRHI
TAF
KRHI 141734Z 1418/1518 27008KT 6SM -SN BKN010 OVC025
      TEMPO 1418/1422 3SM -SN
     FM150100 25005KT 6SM -SN BKN010
      TEMPO 1502/1506 2SM -SN
     FM151400 28014KT P6SM SCT015 SCT030=

USA.gov is the U.S. government's official web portal to all federal, state and local government web resources and services.